createdAt,value
2018-03-16T07:43:06.103Z,22.46
2018-03-16T07:45:39.994Z,22.26
2018-03-16T07:48:06.751Z,22.20
2018-03-16T07:50:33.402Z,22.70
2018-03-16T07:53:00.096Z,22.90
2018-03-16T07:55:26.585Z,22.98
2018-03-16T07:57:52.979Z,22.79
2018-03-16T08:00:19.463Z,23.06
2018-03-16T08:02:45.903Z,23.07
2018-03-16T08:05:12.383Z,23.12
2018-03-16T08:07:38.843Z,23.25
2018-03-16T08:10:06.028Z,23.24
2018-03-16T08:12:33.378Z,23.14
2018-03-16T08:15:00.488Z,23.25
2018-03-16T08:17:27.015Z,23.36
2018-03-16T08:24:56.663Z,23.35
2018-03-16T08:27:23.266Z,23.39
2018-03-16T08:29:49.926Z,23.44
2018-03-16T08:32:16.434Z,23.31
2018-03-16T08:34:42.878Z,23.47
2018-03-16T08:37:09.259Z,23.49
2018-03-16T08:39:35.656Z,23.45
2018-03-16T08:42:02.105Z,23.42
2018-03-16T08:44:28.489Z,23.51
2018-03-16T08:46:54.971Z,23.52
2018-03-16T08:49:21.403Z,23.55
2018-03-16T08:51:47.823Z,23.64
2018-03-16T08:54:14.612Z,23.70
2018-03-16T08:56:41.019Z,23.55
2018-03-16T08:59:07.433Z,23.64
2018-03-16T09:01:33.815Z,23.62
2018-03-16T09:04:00.291Z,23.72
2018-03-16T09:06:26.698Z,23.61
2018-03-16T09:08:53.057Z,23.72
2018-03-16T09:11:19.434Z,23.64
2018-03-16T09:13:46.611Z,23.67
2018-03-16T09:16:12.998Z,23.75
2018-03-16T09:18:39.386Z,23.66
2018-03-16T09:21:05.883Z,23.53
2018-03-16T09:23:32.319Z,23.50
2018-03-16T09:25:58.727Z,23.67
2018-03-16T09:28:25.110Z,23.50
2018-03-16T09:30:51.677Z,23.44
2018-03-16T09:33:18.211Z,23.59
2018-03-16T09:35:44.617Z,23.66
2018-03-16T09:38:11.005Z,23.64
2018-03-16T09:40:37.385Z,23.65
2018-03-16T09:43:03.819Z,23.66
2018-03-16T09:45:30.188Z,23.59
2018-03-16T09:47:56.545Z,23.62
2018-03-16T09:50:22.986Z,23.66
2018-03-16T09:52:49.370Z,23.66
2018-03-16T09:55:15.718Z,23.64
2018-03-16T09:57:42.244Z,23.61
2018-03-16T10:00:08.681Z,23.58
2018-03-16T10:02:35.110Z,23.67
2018-03-16T10:05:01.522Z,23.79
2018-03-16T10:07:27.894Z,23.71
2018-03-16T10:09:54.379Z,23.67
2018-03-16T10:12:20.974Z,23.43
2018-03-16T10:14:47.301Z,23.65
2018-03-16T10:17:13.778Z,23.66
2018-03-16T10:19:40.219Z,23.17
2018-03-16T10:22:08.573Z,22.99
2018-03-16T10:24:34.990Z,23.30
2018-03-16T10:27:01.393Z,23.70
2018-03-16T10:29:27.786Z,23.49
2018-03-16T10:31:54.168Z,23.39
2018-03-16T10:34:20.866Z,23.03
2018-03-16T10:36:47.336Z,22.97
2018-03-16T10:39:13.757Z,23.36
2018-03-16T10:41:40.262Z,23.14
2018-03-16T10:44:06.696Z,23.21
2018-03-16T10:46:33.100Z,23.32
2018-03-16T10:48:59.551Z,23.56
2018-03-16T10:51:25.891Z,23.27
2018-03-16T10:53:52.420Z,23.43
2018-03-16T10:56:18.846Z,23.34
2018-03-16T10:58:45.943Z,23.51
2018-03-16T11:01:13.104Z,23.36
2018-03-16T11:03:39.553Z,23.38
2018-03-16T11:06:06.267Z,23.25
2018-03-16T11:08:33.570Z,23.51
2018-03-16T11:11:00.047Z,23.43
2018-03-16T11:13:26.546Z,23.38
2018-03-16T11:15:53.123Z,23.47
2018-03-16T11:18:19.601Z,23.66
2018-03-16T11:20:46.086Z,23.41
2018-03-16T11:23:12.627Z,23.59
2018-03-16T11:25:39.021Z,23.34
2018-03-16T11:28:05.413Z,23.50
2018-03-16T11:30:31.877Z,23.56
2018-03-16T11:32:58.427Z,23.67
2018-03-16T11:35:25.220Z,23.83
2018-03-16T11:37:51.690Z,23.77
2018-03-16T11:40:18.795Z,23.73
2018-03-16T11:42:45.329Z,23.66
2018-03-16T11:45:13.777Z,23.85
2018-03-16T11:47:40.273Z,23.83
2018-03-16T11:50:06.786Z,23.86
2018-03-16T11:52:33.350Z,23.86
2018-03-16T11:55:00.053Z,23.95
2018-03-16T11:57:28.011Z,24.00
2018-03-16T11:59:54.952Z,23.85
2018-03-16T12:02:21.638Z,23.90
2018-03-16T12:04:48.386Z,23.92
2018-03-16T12:07:15.050Z,23.88
2018-03-16T12:09:41.643Z,23.72
2018-03-16T12:12:09.221Z,23.92
2018-03-16T12:14:35.842Z,23.98
2018-03-16T12:17:03.177Z,24.03
2018-03-16T12:19:29.814Z,24.00
2018-03-16T12:21:56.403Z,24.16
2018-03-16T12:24:28.940Z,24.10
2018-03-16T12:26:56.579Z,24.15
2018-03-16T12:29:23.247Z,24.20
2018-03-16T12:31:50.448Z,24.18
2018-03-16T12:34:17.109Z,24.24
2018-03-16T12:36:43.604Z,24.20
2018-03-16T12:39:10.421Z,24.15
2018-03-16T12:41:38.844Z,24.09
2018-03-16T12:44:08.390Z,23.83
2018-03-16T12:46:34.908Z,24.19
2018-03-16T12:49:01.378Z,24.12
2018-03-16T12:51:27.888Z,24.27
2018-03-16T12:53:55.703Z,24.04
2018-03-16T12:56:22.501Z,24.03
2018-03-16T12:58:49.432Z,24.02
2018-03-16T13:01:16.643Z,24.14
2018-03-16T13:03:43.175Z,23.95
2018-03-16T13:06:10.342Z,24.05
2018-03-16T13:08:37.032Z,24.21
2018-03-16T13:11:03.892Z,24.24
2018-03-16T13:13:30.956Z,24.24
2018-03-16T13:15:57.455Z,24.39
2018-03-16T13:18:24.028Z,24.34
2018-03-16T13:20:50.570Z,24.31
2018-03-16T13:23:17.073Z,24.36
2018-03-16T13:25:43.670Z,24.39
2018-03-16T13:28:10.092Z,24.39
2018-03-16T13:30:36.480Z,24.18
2018-03-16T13:33:02.914Z,24.30
2018-03-16T13:35:29.347Z,24.16
2018-03-16T13:37:55.793Z,24.27
2018-03-16T13:40:22.955Z,24.20
2018-03-16T13:42:49.433Z,24.08
2018-03-16T13:45:15.820Z,23.91
2018-03-16T13:47:42.766Z,24.10
2018-03-16T13:50:09.475Z,23.87
2018-03-16T13:52:35.917Z,24.06
2018-03-16T13:55:02.670Z,24.02
2018-03-16T13:57:29.192Z,24.06
2018-03-16T13:59:55.734Z,24.11
2018-03-16T14:02:22.398Z,24.05
2018-03-16T14:04:49.249Z,24.14
2018-03-16T14:07:16.387Z,24.00
2018-03-16T14:09:42.995Z,23.97
2018-03-16T14:12:09.408Z,23.94
2018-03-16T14:14:35.881Z,24.18
2018-03-16T14:17:04.309Z,24.06
2018-03-16T14:19:30.714Z,24.16
2018-03-16T14:21:57.110Z,24.16
2018-03-16T14:24:23.555Z,23.97
2018-03-16T14:26:49.896Z,24.18
2018-03-16T14:29:16.252Z,24.13
2018-03-16T14:31:42.633Z,24.25
2018-03-16T14:34:09.022Z,24.14
2018-03-16T14:36:35.388Z,24.24
2018-03-16T14:39:01.810Z,24.06
2018-03-16T14:44:26.804Z,24.13
2018-03-16T14:46:53.277Z,24.04
2018-03-16T14:49:19.814Z,24.14
2018-03-16T14:51:46.985Z,24.18
2018-03-16T14:54:13.387Z,24.17
2018-03-16T14:56:39.742Z,24.13
2018-03-16T14:59:06.174Z,24.11
2018-03-16T15:01:33.308Z,24.14
2018-03-16T15:03:59.724Z,23.97
2018-03-16T15:06:26.148Z,24.04
2018-03-16T15:08:52.508Z,23.91
2018-03-16T15:11:18.930Z,23.98
2018-03-16T15:13:45.342Z,23.79
2018-03-16T15:16:11.719Z,23.56
2018-03-16T15:18:38.086Z,23.68
2018-03-16T15:21:04.545Z,24.02
2018-03-16T15:23:30.902Z,23.85
2018-03-16T15:25:57.315Z,23.97
2018-03-16T15:28:23.694Z,23.98
2018-03-16T15:30:55.340Z,23.87
2018-03-16T15:33:21.716Z,24.11
2018-03-16T15:35:48.137Z,24.02
2018-03-16T15:38:14.601Z,23.89
2018-03-16T15:40:40.982Z,23.92
2018-03-16T15:43:07.330Z,23.85
2018-03-16T15:45:33.744Z,23.98
2018-03-16T15:48:00.424Z,23.87
2018-03-16T15:50:26.826Z,23.91
2018-03-16T15:52:53.194Z,23.96
2018-03-16T15:55:19.538Z,23.83
2018-03-16T15:57:45.908Z,23.50
2018-03-16T16:00:12.263Z,23.81
2018-03-16T16:02:38.661Z,23.84
2018-03-16T16:05:05.177Z,23.88
2018-03-16T16:07:31.519Z,23.59
2018-03-16T16:09:57.903Z,23.82
2018-03-16T16:12:24.254Z,23.76
2018-03-16T16:14:50.627Z,23.58
2018-03-16T16:17:16.995Z,23.74
2018-03-16T16:19:43.336Z,23.77
2018-03-16T16:22:09.690Z,23.85
2018-03-16T16:24:36.060Z,23.73
2018-03-16T16:27:02.394Z,23.55
2018-03-16T16:29:28.763Z,23.54
2018-03-16T16:31:55.100Z,23.65
2018-03-16T16:34:21.511Z,23.70
2018-03-16T16:36:47.858Z,23.66
2018-03-16T16:39:14.197Z,23.65
2018-03-16T16:41:40.541Z,23.60
2018-03-16T16:44:06.925Z,23.61
2018-03-16T16:46:33.249Z,23.66
2018-03-16T16:48:59.585Z,23.64
2018-03-16T16:51:26.857Z,23.23
2018-03-16T16:53:53.294Z,23.50
2018-03-16T16:56:19.788Z,23.46
2018-03-16T16:58:46.114Z,23.52
2018-03-16T17:01:12.489Z,23.55
2018-03-16T17:03:38.844Z,23.25
2018-03-16T17:06:05.190Z,23.41
2018-03-16T17:08:31.591Z,23.35
2018-03-16T17:10:57.946Z,23.34
2018-03-16T17:13:24.297Z,23.45
2018-03-16T17:15:50.739Z,23.35
2018-03-16T17:18:17.110Z,23.39
2018-03-16T17:20:43.492Z,23.40
2018-03-16T17:23:09.831Z,23.41
2018-03-16T17:25:36.231Z,23.43
2018-03-16T17:28:02.572Z,22.95
2018-03-16T17:30:28.957Z,23.27
2018-03-16T17:32:55.369Z,23.36
2018-03-16T17:35:21.815Z,23.03
2018-03-16T17:37:48.181Z,23.23
2018-03-16T17:40:14.589Z,23.15
2018-03-16T17:42:40.977Z,23.28
2018-03-16T17:45:07.341Z,23.28
2018-03-16T17:47:33.673Z,23.28
2018-03-16T17:50:00.057Z,23.16
2018-03-16T17:52:26.378Z,23.13
2018-03-16T17:54:52.710Z,22.83
2018-03-16T17:57:19.082Z,23.05
2018-03-16T17:59:45.414Z,23.10
2018-03-16T18:02:11.781Z,23.01
2018-03-16T18:04:38.126Z,22.91
2018-03-16T18:07:04.459Z,22.91
2018-03-16T18:09:30.808Z,22.80
2018-03-16T18:11:57.164Z,22.91
2018-03-16T18:14:23.572Z,22.81
2018-03-16T18:16:49.960Z,22.81
2018-03-16T18:19:16.364Z,22.81
2018-03-16T18:21:42.706Z,22.68
2018-03-16T18:24:09.034Z,22.41
2018-03-16T18:26:35.375Z,22.87
2018-03-16T18:29:01.737Z,22.71
2018-03-16T18:31:28.114Z,22.64
2018-03-16T18:33:54.453Z,22.54
2018-03-16T18:36:20.798Z,22.56
2018-03-16T18:38:47.226Z,22.68
2018-03-16T18:41:13.570Z,22.47
2018-03-16T18:43:39.922Z,22.63
2018-03-16T18:46:06.254Z,22.83
2018-03-16T18:48:32.639Z,22.53
2018-03-16T18:50:59.009Z,22.56
2018-03-16T18:53:25.378Z,22.54
2018-03-16T18:55:51.717Z,22.20
2018-03-16T18:58:18.104Z,22.05
2018-03-16T19:00:44.441Z,22.04
2018-03-16T19:03:10.841Z,22.29
2018-03-16T19:05:37.188Z,22.26
2018-03-16T19:08:03.559Z,22.42
2018-03-16T19:10:29.891Z,22.22
2018-03-16T19:12:56.274Z,22.16
2018-03-16T19:15:22.634Z,22.12
2018-03-16T19:17:49.069Z,22.23
2018-03-16T19:20:15.488Z,22.07
2018-03-16T19:22:41.873Z,22.26
2018-03-16T19:25:08.272Z,21.90
2018-03-16T19:27:34.623Z,21.95
2018-03-16T19:30:00.996Z,22.01
2018-03-16T19:32:27.333Z,21.83
2018-03-16T19:34:53.711Z,22.12
2018-03-16T19:37:20.124Z,22.08
2018-03-16T19:39:46.456Z,22.25
2018-03-16T19:42:12.834Z,21.78
2018-03-16T19:44:39.168Z,22.04
2018-03-16T19:47:05.509Z,21.68
2018-03-16T19:49:32.013Z,21.83
2018-03-16T19:51:58.403Z,21.77
2018-03-16T19:54:24.762Z,21.90
2018-03-16T19:56:51.264Z,21.87
2018-03-16T19:59:17.611Z,21.65
2018-03-16T20:01:44.082Z,21.93
2018-03-16T20:04:10.438Z,21.62
2018-03-16T20:06:36.811Z,21.68
2018-03-16T20:09:03.202Z,22.02
2018-03-16T20:11:29.541Z,22.10
2018-03-16T20:13:55.917Z,22.14
2018-03-16T20:16:22.254Z,22.19
2018-03-16T20:18:48.734Z,22.18
2018-03-16T20:21:15.492Z,22.07
2018-03-16T20:23:41.865Z,22.12
2018-03-16T20:26:08.206Z,22.10
2018-03-16T20:28:34.622Z,22.07
2018-03-16T20:31:00.985Z,22.05
2018-03-16T20:33:27.319Z,22.08
2018-03-16T20:35:53.737Z,22.07
2018-03-16T20:38:20.267Z,22.04
2018-03-16T20:40:46.682Z,22.06
2018-03-16T20:43:13.121Z,22.07
2018-03-16T20:45:39.520Z,22.04
2018-03-16T20:48:05.972Z,21.99
2018-03-16T20:50:32.352Z,21.99
2018-03-16T20:52:58.775Z,21.96
2018-03-16T20:55:25.249Z,21.98
2018-03-16T20:57:51.681Z,21.98
2018-03-16T21:00:18.060Z,21.93
2018-03-16T21:02:44.394Z,21.90
2018-03-16T21:05:10.780Z,21.92
2018-03-16T21:07:37.126Z,21.96
2018-03-16T21:10:03.494Z,21.83
2018-03-16T21:12:29.895Z,21.93
2018-03-16T21:14:56.227Z,21.91
2018-03-16T21:17:22.609Z,21.87
2018-03-16T21:19:48.985Z,21.88
2018-03-16T21:22:15.368Z,21.82
2018-03-16T21:24:41.711Z,21.80
2018-03-16T21:27:08.710Z,21.82
2018-03-16T21:29:35.060Z,21.88
2018-03-16T21:32:01.698Z,21.81
2018-03-16T21:34:28.055Z,21.78
2018-03-16T21:36:54.600Z,21.80
2018-03-16T21:39:21.069Z,21.78
2018-03-16T21:41:47.457Z,21.77
2018-03-16T21:44:13.952Z,21.78
2018-03-16T21:46:40.362Z,21.76
2018-03-16T21:49:06.763Z,21.77
2018-03-16T21:51:33.163Z,21.75
2018-03-16T21:53:59.558Z,21.72
2018-03-16T21:56:25.954Z,21.72
2018-03-16T21:58:52.321Z,21.72
2018-03-16T22:01:18.693Z,21.68
2018-03-16T22:03:45.139Z,21.64
2018-03-16T22:06:11.533Z,21.68
2018-03-16T22:08:37.933Z,21.69
2018-03-16T22:11:04.366Z,21.70
2018-03-16T22:13:30.802Z,21.63
2018-03-16T22:15:57.177Z,21.58
2018-03-16T22:18:23.565Z,21.61
2018-03-16T22:20:49.977Z,21.67
2018-03-16T22:23:16.391Z,21.62
2018-03-16T22:25:42.778Z,21.63
2018-03-16T22:28:09.207Z,21.64
2018-03-16T22:30:35.630Z,21.59
2018-03-16T22:33:02.069Z,21.61
2018-03-16T22:35:28.504Z,21.53
2018-03-16T22:37:54.910Z,21.54
2018-03-16T22:40:21.344Z,21.54
2018-03-16T22:42:47.742Z,21.55
2018-03-16T22:45:14.163Z,21.57
2018-03-16T22:47:40.595Z,21.55
2018-03-16T22:50:06.977Z,21.57
2018-03-16T22:52:33.373Z,21.47
2018-03-16T22:54:59.832Z,21.47
2018-03-16T22:57:26.209Z,21.54
2018-03-16T22:59:52.597Z,21.49
2018-03-16T23:02:19.081Z,21.48
2018-03-16T23:04:45.494Z,21.50
2018-03-16T23:07:11.911Z,21.50
2018-03-16T23:09:38.300Z,21.48
2018-03-16T23:12:04.721Z,21.46
2018-03-16T23:14:31.152Z,21.47
2018-03-16T23:16:57.576Z,21.45
2018-03-16T23:19:23.918Z,21.46
2018-03-16T23:21:50.316Z,21.44
2018-03-16T23:24:16.647Z,21.38
2018-03-16T23:26:43.030Z,21.43
2018-03-16T23:29:09.362Z,21.42
2018-03-16T23:31:35.711Z,21.37
2018-03-16T23:34:02.060Z,21.42
2018-03-16T23:36:28.433Z,21.42
2018-03-16T23:38:54.952Z,21.38
2018-03-16T23:41:21.608Z,21.35
2018-03-16T23:43:47.990Z,21.36
2018-03-16T23:46:14.325Z,21.36
2018-03-16T23:48:40.718Z,21.32
2018-03-16T23:51:07.133Z,21.33
2018-03-16T23:53:33.482Z,21.33
2018-03-16T23:55:59.850Z,21.34
2018-03-16T23:58:26.190Z,21.34
